sensor_id;sensor_type;location;lat;lon;timestamp;pressure;altitude;pressure_sealevel;temperature;humidity
46614;BME280;32338;50.430;6.806;2023-03-01T00:01:52;64883.59;;;-4.98;100.00
46614;BME280;32338;50.430;6.806;2023-03-01T00:04:19;64887.84;;;-4.97;100.00
46614;BME280;32338;50.430;6.806;2023-03-01T00:06:47;64885.84;;;-4.96;100.00
46614;BME280;32338;50.430;6.806;2023-03-01T00:09:14;64889.72;;;-4.93;100.00
46614;BME280;32338;50.430;6.806;2023-03-01T00:11:41;64891.38;;;-4.91;100.00
46614;BME280;32338;50.430;6.806;2023-03-01T00:14:08;64891.94;;;-4.91;100.00
46614;BME280;32338;50.430;6.806;2023-03-01T00:16:36;64889.50;;;-4.95;100.00
46614;BME280;32338;50.430;6.806;2023-03-01T00:19:05;64887.84;;;-4.97;100.00
46614;BME280;32338;50.430;6.806;2023-03-01T00:21:32;64890.63;;;-4.94;100.00
46614;BME280;32338;50.430;6.806;2023-03-01T00:24:02;64891.38;;;-4.91;100.00
46614;BME280;32338;50.430;6.806;2023-03-01T00:26:29;64898.16;;;-4.90;100.00
46614;BME280;32338;50.430;6.806;2023-03-01T00:28:57;64890.84;;;-4.92;100.00
46614;BME280;32338;50.430;6.806;2023-03-01T00:31:25;64900.81;;;-4.82;100.00
46614;BME280;32338;50.430;6.806;2023-03-01T00:33:56;64890.06;;;-4.95;100.00
46614;BME280;32338;50.430;6.806;2023-03-01T00:36:24;64891.50;;;-4.96;100.00
46614;BME280;32338;50.430;6.806;2023-03-01T00:38:51;64886.50;;;-5.00;100.00
46614;BME280;32338;50.430;6.806;2023-03-01T00:41:20;64879.50;;;-5.05;100.00
46614;BME280;32338;50.430;6.806;2023-03-01T00:43:48;64877.28;;;-5.07;100.00
46614;BME280;32338;50.430;6.806;2023-03-01T00:46:17;64875.06;;;-5.09;100.00
46614;BME280;32338;50.430;6.806;2023-03-01T00:48:44;64870.84;;;-5.10;100.00
46614;BME280;32338;50.430;6.806;2023-03-01T00:51:13;64871.97;;;-5.09;100.00
46614;BME280;32338;50.430;6.806;2023-03-01T00:53:40;64875.06;;;-5.09;100.00
46614;BME280;32338;50.430;6.806;2023-03-01T00:56:09;64870.84;;;-5.10;100.00
46614;BME280;32338;50.430;6.806;2023-03-01T00:58:38;64866.41;;;-5.14;100.00
46614;BME280;32338;50.430;6.806;2023-03-01T01:01:08;64866.19;;;-5.17;100.00
46614;BME280;32338;50.430;6.806;2023-03-01T01:03:42;64866.72;;;-5.16;100.00
46614;BME280;32338;50.430;6.806;2023-03-01T01:06:13;64859.41;;;-5.18;100.00
46614;BME280;32338;50.430;6.806;2023-03-01T01:08:40;64870.63;;;-5.13;100.00
46614;BME280;32338;50.430;6.806;2023-03-01T01:11:08;64866.19;;;-5.17;100.00
46614;BME280;32338;50.430;6.806;2023-03-01T01:13:36;64853.84;;;-5.24;100.00
46614;BME280;32338;50.430;6.806;2023-03-01T01:16:05;64862.63;;;-5.23;100.00
46614;BME280;32338;50.430;6.806;2023-03-01T01:18:32;64855.06;;;-5.27;100.00
46614;BME280;32338;50.430;6.806;2023-03-01T01:21:03;64847.19;;;-5.30;100.00
46614;BME280;32338;50.430;6.806;2023-03-01T01:23:30;64849.53;;;-5.32;100.00
46614;BME280;32338;50.430;6.806;2023-03-01T01:25:57;64846.19;;;-5.35;100.00
46614;BME280;32338;50.430;6.806;2023-03-01T01:28:23;64847.06;;;-5.37;100.00
46614;BME280;32338;50.430;6.806;2023-03-01T01:30:50;64849.31;;;-5.35;100.00
46614;BME280;32338;50.430;6.806;2023-03-01T01:33:18;64843.66;;;-5.35;100.00
46614;BME280;32338;50.430;6.806;2023-03-01T01:35:45;64844.19;;;-5.35;100.00
46614;BME280;32338;50.430;6.806;2023-03-01T01:38:11;64843.44;;;-5.38;100.00
46614;BME280;32338;50.430;6.806;2023-03-01T01:40:43;64842.63;;;-5.41;100.00
46614;BME280;32338;50.430;6.806;2023-03-01T01:43:18;64844.75;;;-5.34;100.00
46614;BME280;32338;50.430;6.806;2023-03-01T01:45:45;64843.06;;;-5.36;100.00
46614;BME280;32338;50.430;6.806;2023-03-01T01:48:14;64852.28;;;-5.30;100.00
46614;BME280;32338;50.430;6.806;2023-03-01T01:50:44;64838.66;;;-5.40;100.00
46614;BME280;32338;50.430;6.806;2023-03-01T01:53:15;64834.22;;;-5.44;100.00
46614;BME280;32338;50.430;6.806;2023-03-01T01:55:45;64830.88;;;-5.47;100.00
46614;BME280;32338;50.430;6.806;2023-03-01T01:58:16;64835.44;;;-5.48;100.00
46614;BME280;32338;50.430;6.806;2023-03-01T02:00:44;64833.19;;;-5.50;100.00
46614;BME280;32338;50.430;6.806;2023-03-01T02:03:14;64835.66;;;-5.45;100.00
46614;BME280;32338;50.430;6.806;2023-03-01T02:05:47;64827.56;;;-5.50;100.00
46614;BME280;32338;50.430;6.806;2023-03-01T02:08:18;64827.66;;;-5.55;100.00
46614;BME280;32338;50.430;6.806;2023-03-01T02:10:46;64824.22;;;-5.54;100.00
46614;BME280;32338;50.430;6.806;2023-03-01T02:13:13;64816.47;;;-5.61;100.00
46614;BME280;32338;50.430;6.806;2023-03-01T02:15:40;64814.56;;;-5.65;100.00
46614;BME280;32338;50.430;6.806;2023-03-01T02:18:10;64807.78;;;-5.66;100.00
46614;BME280;32338;50.430;6.806;2023-03-01T02:20:48;64807.56;;;-5.69;100.00
46614;BME280;32338;50.430;6.806;2023-03-01T02:23:17;64806.47;;;-5.70;100.00
46614;BME280;32338;50.430;6.806;2023-03-01T02:25:49;64813.78;;;-5.68;100.00
46614;BME280;32338;50.430;6.806;2023-03-01T02:28:34;64808.34;;;-5.66;100.00
46614;BME280;32338;50.430;6.806;2023-03-01T02:31:03;64810.13;;;-5.69;100.00
46614;BME280;32338;50.430;6.806;2023-03-01T02:33:48;64813.56;;;-5.71;100.00
46614;BME280;32338;50.430;6.806;2023-03-01T02:36:17;64807.34;;;-5.72;100.00
46614;BME280;32338;50.430;6.806;2023-03-01T02:38:46;64804.22;;;-5.72;100.00
46614;BME280;32338;50.430;6.806;2023-03-01T02:41:15;64800.91;;;-5.75;100.00
46614;BME280;32338;50.430;6.806;2023-03-01T02:43:44;64801.91;;;-5.81;100.00
46614;BME280;32338;50.430;6.806;2023-03-01T02:46:14;64788.69;;;-5.87;100.00
46614;BME280;32338;50.430;6.806;2023-03-01T02:48:43;64790.16;;;-5.88;100.00
46614;BME280;32338;50.430;6.806;2023-03-01T02:51:24;64784.28;;;-5.91;100.00
46614;BME280;32338;50.430;6.806;2023-03-01T02:53:58;64785.94;;;-5.89;100.00
46614;BME280;32338;50.430;6.806;2023-03-01T02:56:29;64788.47;;;-5.89;100.00
46614;BME280;32338;50.430;6.806;2023-03-01T02:58:58;64786.25;;;-5.91;100.00
46614;BME280;32338;50.430;6.806;2023-03-01T03:01:27;64789.16;;;-5.93;100.00
46614;BME280;32338;50.430;6.806;2023-03-01T03:04:02;64779.81;;;-5.95;100.00
46614;BME280;32338;50.430;6.806;2023-03-01T03:06:29;64777.97;;;-5.99;100.00
46614;BME280;32338;50.430;6.806;2023-03-01T03:08:56;64777.19;;;-6.02;100.00
46614;BME280;32338;50.430;6.806;2023-03-01T03:11:22;64768.75;;;-6.05;100.00
46614;BME280;32338;50.430;6.806;2023-03-01T03:13:49;64769.88;;;-6.04;100.00
46614;BME280;32338;50.430;6.806;2023-03-01T03:16:18;64781.28;;;-5.96;100.00
46614;BME280;32338;50.430;6.806;2023-03-01T03:18:45;64780.72;;;-5.96;100.00
46614;BME280;32338;50.430;6.806;2023-03-01T03:21:13;64774.88;;;-5.99;100.00
46614;BME280;32338;50.430;6.806;2023-03-01T03:23:40;64772.75;;;-6.06;100.00
46614;BME280;32338;50.430;6.806;2023-03-01T03:26:06;64771.09;;;-6.08;100.00
46614;BME280;32338;50.430;6.806;2023-03-01T03:28:34;64772.84;;;-5.99;100.00
46614;BME280;32338;50.430;6.806;2023-03-01T03:31:05;64784.28;;;-5.91;100.00
46614;BME280;32338;50.430;6.806;2023-03-01T03:33:34;64784.16;;;-5.98;100.00
46614;BME280;32338;50.430;6.806;2023-03-01T03:36:00;64777.75;;;-6.01;100.00
46614;BME280;32338;50.430;6.806;2023-03-01T03:38:27;64773.84;;;-6.05;100.00
46614;BME280;32338;50.430;6.806;2023-03-01T03:41:00;64773.53;;;-6.03;100.00
46614;BME280;32338;50.430;6.806;2023-03-01T03:43:28;64763.75;;;-6.10;100.00
46614;BME280;32338;50.430;6.806;2023-03-01T03:45:55;64757.66;;;-6.15;100.00
46614;BME280;32338;50.430;6.806;2023-03-01T03:48:24;64758.88;;;-6.19;100.00
46614;BME280;32338;50.430;6.806;2023-03-01T03:50:54;64757.75;;;-6.20;100.00
46614;BME280;32338;50.430;6.806;2023-03-01T03:53:23;64750.78;;;-6.24;100.00
46614;BME280;32338;50.430;6.806;2023-03-01T03:55:50;64743.25;;;-6.29;100.00
46614;BME280;32338;50.430;6.806;2023-03-01T03:58:19;64742.47;;;-6.32;100.00
46614;BME280;32338;50.430;6.806;2023-03-01T04:00:47;64742.47;;;-6.32;100.00
46614;BME280;32338;50.430;6.806;2023-03-01T04:03:16;64740.56;;;-6.36;100.00
46614;BME280;32338;50.430;6.806;2023-03-01T04:05:44;64735.47;;;-6.36;100.00
46614;BME280;32338;50.430;6.806;2023-03-01T04:08:13;64734.13;;;-6.40;100.00
46614;BME280;32338;50.430;6.806;2023-03-01T04:10:42;64731.94;;;-6.42;100.00
46614;BME280;32338;50.430;6.806;2023-03-01T04:13:10;64727.50;;;-6.46;100.00
46614;BME280;32338;50.430;6.806;2023-03-01T04:15:38;64724.72;;;-6.48;100.00
46614;BME280;32338;50.430;6.806;2023-03-01T04:18:06;64722.16;;;-6.48;100.00
46614;BME280;32338;50.430;6.806;2023-03-01T04:20:34;64727.81;;;-6.48;100.00
46614;BME280;32338;50.430;6.806;2023-03-01T04:23:03;64726.72;;;-6.49;100.00
46614;BME280;32338;50.430;6.806;2023-03-01T04:25:37;64715.19;;;-6.53;100.00
46614;BME280;32338;50.430;6.806;2023-03-01T04:28:05;64729.47;;;-6.46;100.00
46614;BME280;32338;50.430;6.806;2023-03-01T04:30:31;64735.03;;;-6.41;100.00
46614;BME280;32338;50.430;6.806;2023-03-01T04:33:02;64721.41;;;-6.52;100.00
46614;BME280;32338;50.430;6.806;2023-03-01T04:35:29;64711.06;;;-6.59;100.00
46614;BME280;32338;50.430;6.806;2023-03-01T04:37:55;64712.50;;;-6.60;100.00
46614;BME280;32338;50.430;6.806;2023-03-01T04:40:22;64711.97;;;-6.60;100.00
46614;BME280;32338;50.430;6.806;2023-03-01T04:42:50;64706.66;;;-6.63;100.00
46614;BME280;32338;50.430;6.806;2023-03-01T04:45:17;64707.53;;;-6.64;100.00
46614;BME280;32338;50.430;6.806;2023-03-01T04:47:44;64707.31;;;-6.67;100.00
46614;BME280;32338;50.430;6.806;2023-03-01T04:50:13;64707.31;;;-6.67;100.00
46614;BME280;32338;50.430;6.806;2023-03-01T04:52:40;64704.75;;;-6.67;100.00
46614;BME280;32338;50.430;6.806;2023-03-01T04:55:08;64700.00;;;-6.69;100.00
46614;BME280;32338;50.430;6.806;2023-03-01T04:57:35;64697.78;;;-6.71;100.00
46614;BME280;32338;50.430;6.806;2023-03-01T05:00:04;64709.31;;;-6.68;100.00
46614;BME280;32338;50.430;6.806;2023-03-01T05:02:46;64695.56;;;-6.73;100.00
46614;BME280;32338;50.430;6.806;2023-03-01T05:05:13;64695.66;;;-6.78;100.00
46614;BME280;32338;50.430;6.806;2023-03-01T05:07:40;64687.00;;;-6.84;100.00
46614;BME280;32338;50.430;6.806;2023-03-01T05:10:07;64687.69;;;-6.88;100.00
46614;BME280;32338;50.430;6.806;2023-03-01T05:12:34;64680.94;;;-6.89;100.00
46614;BME280;32338;50.430;6.806;2023-03-01T05:15:05;64673.59;;;-6.91;100.00
46614;BME280;32338;50.430;6.806;2023-03-01T05:17:32;64678.16;;;-6.92;100.00
46614;BME280;32338;50.430;6.806;2023-03-01T05:19:59;64671.19;;;-6.96;100.00
46614;BME280;32338;50.430;6.806;2023-03-01T05:22:26;64675.03;;;-6.92;100.00
46614;BME280;32338;50.430;6.806;2023-03-01T05:24:53;64679.38;;;-6.95;100.00
46614;BME280;32338;50.430;6.806;2023-03-01T05:27:20;64676.28;;;-6.96;100.00
46614;BME280;32338;50.430;6.806;2023-03-01T05:29:47;64670.97;;;-6.98;100.00
46614;BME280;32338;50.430;6.806;2023-03-01T05:32:15;64675.16;;;-6.97;100.00
46614;BME280;32338;50.430;6.806;2023-03-01T05:34:42;64672.94;;;-6.99;100.00
46614;BME280;32338;50.430;6.806;2023-03-01T05:37:09;64668.16;;;-7.01;100.00
46614;BME280;32338;50.430;6.806;2023-03-01T05:39:36;64669.63;;;-7.02;100.00
46614;BME280;32338;50.430;6.806;2023-03-01T05:42:02;64667.94;;;-7.04;100.00
46614;BME280;32338;50.430;6.806;2023-03-01T05:44:29;64664.53;;;-7.02;100.00
46614;BME280;32338;50.430;6.806;2023-03-01T05:46:56;64669.63;;;-7.02;100.00
46614;BME280;32338;50.430;6.806;2023-03-01T05:49:24;64665.97;;;-7.03;100.00
46614;BME280;32338;50.430;6.806;2023-03-01T05:51:53;64658.97;;;-7.07;100.00
46614;BME280;32338;50.430;6.806;2023-03-01T05:54:20;64657.88;;;-7.08;100.00
46614;BME280;32338;50.430;6.806;2023-03-01T05:56:48;64660.22;;;-7.11;100.00
46614;BME280;32338;50.430;6.806;2023-03-01T05:59:14;64658.53;;;-7.12;100.00
46614;BME280;32338;50.430;6.806;2023-03-01T06:01:42;64662.63;;;-7.06;100.00
46614;BME280;32338;50.430;6.806;2023-03-01T06:04:08;64658.19;;;-7.10;100.00
46614;BME280;32338;50.430;6.806;2023-03-01T06:06:37;64664.41;;;-7.09;100.00
46614;BME280;32338;50.430;6.806;2023-03-01T06:09:04;64654.00;;;-7.12;100.00
46614;BME280;32338;50.430;6.806;2023-03-01T06:11:33;64657.66;;;-7.11;100.00
46614;BME280;32338;50.430;6.806;2023-03-01T06:14:00;64657.31;;;-7.09;100.00
46614;BME280;32338;50.430;6.806;2023-03-01T06:16:27;64653.22;;;-7.15;100.00
46614;BME280;32338;50.430;6.806;2023-03-01T06:18:53;64648.47;;;-7.17;100.00
46614;BME280;32338;50.430;6.806;2023-03-01T06:21:20;64649.31;;;-7.19;100.00
46614;BME280;32338;50.430;6.806;2023-03-01T06:23:48;64652.09;;;-7.16;100.00
46614;BME280;32338;50.430;6.806;2023-03-01T06:26:14;64651.56;;;-7.17;100.00
46614;BME280;32338;50.430;6.806;2023-03-01T06:28:41;64651.00;;;-7.17;100.00
46614;BME280;32338;50.430;6.806;2023-03-01T06:31:11;64648.25;;;-7.20;100.00
46614;BME280;32338;50.430;6.806;2023-03-01T06:33:38;64644.59;;;-7.21;100.00
46614;BME280;32338;50.430;6.806;2023-03-01T06:36:05;64643.78;;;-7.24;100.00
46614;BME280;32338;50.430;6.806;2023-03-01T06:38:32;64639.59;;;-7.25;100.00
46614;BME280;32338;50.430;6.806;2023-03-01T06:41:00;64639.03;;;-7.26;100.00
46614;BME280;32338;50.430;6.806;2023-03-01T06:43:27;64644.91;;;-7.23;100.00
46614;BME280;32338;50.430;6.806;2023-03-01T06:45:55;64648.00;;;-7.22;100.00
46614;BME280;32338;50.430;6.806;2023-03-01T06:48:21;64647.34;;;-7.18;100.00
46614;BME280;32338;50.430;6.806;2023-03-01T06:50:48;64648.47;;;-7.17;100.00
46614;BME280;32338;50.430;6.806;2023-03-01T06:53:15;64661.88;;;-7.09;100.00
46614;BME280;32338;50.430;6.806;2023-03-01T06:55:42;64660.66;;;-7.06;100.00
46614;BME280;32338;50.430;6.806;2023-03-01T06:58:12;64663.97;;;-7.03;100.00
46614;BME280;32338;50.430;6.806;2023-03-01T07:00:38;64672.94;;;-6.99;100.00
46614;BME280;32338;50.430;6.806;2023-03-01T07:03:06;64670.06;;;-6.97;100.00
46614;BME280;32338;50.430;6.806;2023-03-01T07:05:33;64692.22;;;-6.76;100.00
46614;BME280;32338;50.430;6.806;2023-03-01T07:08:00;64688.91;;;-6.79;100.00
46614;BME280;32338;50.430;6.806;2023-03-01T07:10:27;64689.81;;;-6.81;100.00
46614;BME280;32338;50.430;6.806;2023-03-01T07:12:55;64695.66;;;-6.78;100.00
46614;BME280;32338;50.430;6.806;2023-03-01T07:15:24;64704.19;;;-6.68;100.00
46614;BME280;32338;50.430;6.806;2023-03-01T07:17:51;64721.72;;;-6.54;100.00
46614;BME280;32338;50.430;6.806;2023-03-01T07:20:18;64715.63;;;-6.59;100.00
46614;BME280;32338;50.430;6.806;2023-03-01T07:22:47;64712.97;;;-6.55;100.00
46614;BME280;32338;50.430;6.806;2023-03-01T07:25:14;64705.53;;;-6.64;100.00
46614;BME280;32338;50.430;6.806;2023-03-01T07:27:41;64719.97;;;-6.50;100.00
46614;BME280;32338;50.430;6.806;2023-03-01T07:30:09;64718.28;;;-6.52;100.00
46614;BME280;32338;50.430;6.806;2023-03-01T07:32:38;64736.94;;;-6.37;100.00
46614;BME280;32338;50.430;6.806;2023-03-01T07:35:05;64739.47;;;-6.37;100.00
46614;BME280;32338;50.430;6.806;2023-03-01T07:37:32;64730.28;;;-6.43;100.00
46614;BME280;32338;50.430;6.806;2023-03-01T07:39:59;64750.22;;;-6.25;100.00
46614;BME280;32338;50.430;6.806;2023-03-01T07:42:25;64771.63;;;-6.07;100.00
46614;BME280;32338;50.430;6.806;2023-03-01T07:44:52;64763.44;;;-6.08;100.00
46614;BME280;32338;50.430;6.806;2023-03-01T07:47:19;64773.53;;;-6.03;100.00
46614;BME280;32338;50.430;6.806;2023-03-01T07:49:47;64779.28;;;-5.95;100.00
46614;BME280;32338;50.430;6.806;2023-03-01T07:52:13;64778.50;;;-5.98;100.00
46614;BME280;32338;50.430;6.806;2023-03-01T07:54:42;64779.81;;;-5.95;100.00
46614;BME280;32338;50.430;6.806;2023-03-01T07:57:10;64783.16;;;-5.92;100.00
46614;BME280;32338;50.430;6.806;2023-03-01T07:59:37;64787.59;;;-5.88;100.00
46614;BME280;32338;50.430;6.806;2023-03-01T08:02:04;64809.00;;;-5.70;100.00
46614;BME280;32338;50.430;6.806;2023-03-01T08:04:31;64806.78;;;-5.72;100.00
46614;BME280;32338;50.430;6.806;2023-03-01T08:06:59;64809.78;;;-5.67;100.00
46614;BME280;32338;50.430;6.806;2023-03-01T08:09:26;64822.00;;;-5.56;100.00
46614;BME280;32338;50.430;6.806;2023-03-01T08:11:53;64830.66;;;-5.50;100.00
46614;BME280;32338;50.430;6.806;2023-03-01T08:14:20;64839.19;;;-5.40;100.00
46614;BME280;32338;50.430;6.806;2023-03-01T08:16:49;64847.75;;;-5.29;100.00
46614;BME280;32338;50.430;6.806;2023-03-01T08:19:16;64860.63;;;-5.22;100.00
46614;BME280;32338;50.430;6.806;2023-03-01T08:21:42;64868.41;;;-5.15;100.00
46614;BME280;32338;50.430;6.806;2023-03-01T08:24:10;64880.38;;;-5.06;100.00
46614;BME280;32338;50.430;6.806;2023-03-01T08:26:37;64887.06;;;-5.00;100.00
46614;BME280;32338;50.430;6.806;2023-03-01T08:29:04;64893.03;;;-4.90;100.00
46614;BME280;32338;50.430;6.806;2023-03-01T08:31:33;64910.38;;;-4.78;100.00
46614;BME280;32338;50.430;6.806;2023-03-01T08:34:04;64916.94;;;-4.67;100.00
46614;BME280;32338;50.430;6.806;2023-03-01T08:36:33;64928.94;;;-4.59;100.00
46614;BME280;32338;50.430;6.806;2023-03-01T08:39:01;64941.16;;;-4.47;100.00
46614;BME280;32338;50.430;6.806;2023-03-01T08:41:29;64945.25;;;-4.41;100.00
46614;BME280;32338;50.430;6.806;2023-03-01T08:43:56;64953.38;;;-4.36;100.00
46614;BME280;32338;50.430;6.806;2023-03-01T08:46:25;64966.72;;;-4.24;100.00
46614;BME280;32338;50.430;6.806;2023-03-01T08:48:52;64979.72;;;-4.09;100.00
46614;BME280;32338;50.430;6.806;2023-03-01T08:51:20;64994.16;;;-3.96;100.00
46614;BME280;32338;50.430;6.806;2023-03-01T08:53:47;65011.41;;;-3.80;100.00
46614;BME280;32338;50.430;6.806;2023-03-01T08:56:15;65030.66;;;-3.64;100.00
46614;BME280;32338;50.430;6.806;2023-03-01T08:58:45;65041.78;;;-3.54;100.00
46614;BME280;32338;50.430;6.806;2023-03-01T09:01:14;65050.88;;;-3.43;100.00
46614;BME280;32338;50.430;6.806;2023-03-01T09:03:41;65073.69;;;-3.22;100.00
46614;BME280;32338;50.430;6.806;2023-03-01T09:06:07;65086.06;;;-3.15;100.00
46614;BME280;32338;50.430;6.806;2023-03-01T09:08:35;65099.28;;;-2.98;100.00
46614;BME280;32338;50.430;6.806;2023-03-01T09:11:02;65107.63;;;-2.90;100.00
46614;BME280;32338;50.430;6.806;2023-03-01T09:13:29;65124.88;;;-2.74;100.00
46614;BME280;32338;50.430;6.806;2023-03-01T09:15:57;65147.81;;;-2.58;100.00
46614;BME280;32338;50.430;6.806;2023-03-01T09:18:24;65152.50;;;-2.51;100.00
46614;BME280;32338;50.430;6.806;2023-03-01T09:20:51;65165.72;;;-2.34;100.00
46614;BME280;32338;50.430;6.806;2023-03-01T09:23:20;65187.91;;;-2.21;100.00
46614;BME280;32338;50.430;6.806;2023-03-01T09:25:46;65195.59;;;-2.09;100.00
46614;BME280;32338;50.430;6.806;2023-03-01T09:28:13;65204.84;;;-2.03;100.00
46614;BME280;32338;50.430;6.806;2023-03-01T09:30:39;65222.88;;;-1.84;100.00
46614;BME280;32338;50.430;6.806;2023-03-01T09:33:07;65214.53;;;-1.91;100.00
46614;BME280;32338;50.430;6.806;2023-03-01T09:35:40;65225.31;;;-1.79;100.00
46614;BME280;32338;50.430;6.806;2023-03-01T09:38:11;65252.53;;;-1.61;100.00
46614;BME280;32338;50.430;6.806;2023-03-01T09:40:42;65270.78;;;-1.39;100.00
46614;BME280;32338;50.430;6.806;2023-03-01T09:43:16;65297.88;;;-1.17;100.00
46614;BME280;32338;50.430;6.806;2023-03-01T09:45:46;65301.00;;;-1.16;100.00
46614;BME280;32338;50.430;6.806;2023-03-01T09:48:19;65303.44;;;-1.11;100.00
46614;BME280;32338;50.430;6.806;2023-03-01T09:50:47;65322.41;;;-0.94;100.00
46614;BME280;32338;50.430;6.806;2023-03-01T09:53:16;65330.78;;;-0.86;100.00
46614;BME280;32338;50.430;6.806;2023-03-01T09:55:44;65331.00;;;-0.84;100.00
46614;BME280;32338;50.430;6.806;2023-03-01T09:58:36;65334.69;;;-0.83;100.00
46614;BME280;32338;50.430;6.806;2023-03-01T10:01:15;65327.63;;;-0.87;100.00
46614;BME280;32338;50.430;6.806;2023-03-01T10:04:06;65338.94;;;-0.81;100.00
46614;BME280;32338;50.430;6.806;2023-03-01T10:06:36;65363.88;;;-0.53;100.00
46614;BME280;32338;50.430;6.806;2023-03-01T10:09:07;65355.88;;;-0.63;100.00
46614;BME280;32338;50.430;6.806;2023-03-01T10:11:38;65353.28;;;-0.63;100.00
46614;BME280;32338;50.430;6.806;2023-03-01T10:14:12;65349.94;;;-0.66;100.00
46614;BME280;32338;50.430;6.806;2023-03-01T10:16:47;65342.13;;;-0.73;100.00
46614;BME280;32338;50.430;6.806;2023-03-01T10:19:22;65372.94;;;-0.50;100.00
46614;BME280;32338;50.430;6.806;2023-03-01T10:21:51;65374.81;;;-0.45;100.00
46614;BME280;32338;50.430;6.806;2023-03-01T10:24:19;65379.84;;;-0.41;100.00
46614;BME280;32338;50.430;6.806;2023-03-01T10:26:54;65374.69;;;-0.41;100.00
46614;BME280;32338;50.430;6.806;2023-03-01T10:29:25;65390.25;;;-0.34;100.00
46614;BME280;32338;50.430;6.806;2023-03-01T10:31:53;65388.22;;;-0.33;100.00
46614;BME280;32338;50.430;6.806;2023-03-01T10:34:27;65395.03;;;-0.31;100.00
46614;BME280;32338;50.430;6.806;2023-03-01T10:36:57;65410.53;;;-0.12;100.00
46614;BME280;32338;50.430;6.806;2023-03-01T10:39:25;65438.44;;;0.13;100.00
46614;BME280;32338;50.430;6.806;2023-03-01T10:41:55;65463.56;;;0.37;100.00
46614;BME280;32338;50.430;6.806;2023-03-01T10:44:41;65470.47;;;0.45;100.00
46614;BME280;32338;50.430;6.806;2023-03-01T10:47:20;65485.66;;;0.55;100.00
46614;BME280;32338;50.430;6.806;2023-03-01T10:49:57;65464.31;;;0.40;100.00
46614;BME280;32338;50.430;6.806;2023-03-01T10:52:26;65474.16;;;0.46;100.00
46614;BME280;32338;50.430;6.806;2023-03-01T10:54:55;65487.56;;;0.59;100.00
46614;BME280;32338;50.430;6.806;2023-03-01T10:57:35;65508.44;;;0.80;100.00
46614;BME280;32338;50.430;6.806;2023-03-01T11:00:21;65519.38;;;0.88;100.00
46614;BME280;32338;50.430;6.806;2023-03-01T11:02:50;65517.16;;;0.86;100.00
46614;BME280;32338;50.430;6.806;2023-03-01T11:05:22;65520.72;;;0.92;100.00
46614;BME280;32338;50.430;6.806;2023-03-01T11:07:52;65528.41;;;1.04;100.00
46614;BME280;32338;50.430;6.806;2023-03-01T11:10:21;65558.63;;;1.20;100.00
46614;BME280;32338;50.430;6.806;2023-03-01T11:12:50;65565.41;;;1.33;100.00
46614;BME280;32338;50.430;6.806;2023-03-01T11:15:22;65568.53;;;1.34;100.00
46614;BME280;32338;50.430;6.806;2023-03-01T11:17:50;65580.28;;;1.44;100.00
46614;BME280;32338;50.430;6.806;2023-03-01T11:20:26;65582.38;;;1.51;100.00
46614;BME280;32338;50.430;6.806;2023-03-01T11:22:55;65603.41;;;1.68;100.00
46614;BME280;32338;50.430;6.806;2023-03-01T11:25:25;65626.69;;;1.87;100.00
46614;BME280;32338;50.430;6.806;2023-03-01T11:27:53;65623.75;;;1.89;100.00
46614;BME280;32338;50.430;6.806;2023-03-01T11:30:23;65635.06;;;1.95;100.00
46614;BME280;32338;50.430;6.806;2023-03-01T11:32:59;65657.97;;;2.16;100.00
46614;BME280;32338;50.430;6.806;2023-03-01T11:35:32;65650.94;;;2.12;100.00
46614;BME280;32338;50.430;6.806;2023-03-01T11:38:09;65671.97;;;2.29;100.00
46614;BME280;32338;50.430;6.806;2023-03-01T11:40:41;65674.06;;;2.36;100.00
46614;BME280;32338;50.430;6.806;2023-03-01T11:43:16;65683.22;;;2.47;100.00
46614;BME280;32338;50.430;6.806;2023-03-01T11:46:02;65676.28;;;2.38;98.97
46614;BME280;32338;50.430;6.806;2023-03-01T11:48:44;65692.66;;;2.48;100.00
46614;BME280;32338;50.430;6.806;2023-03-01T11:51:22;65685.03;;;2.43;96.65
46614;BME280;32338;50.430;6.806;2023-03-01T11:53:57;65699.78;;;2.59;100.00
46614;BME280;32338;50.430;6.806;2023-03-01T11:56:31;65677.38;;;2.32;97.63
46614;BME280;32338;50.430;6.806;2023-03-01T11:59:15;65652.41;;;2.11;97.27
46614;BME280;32338;50.430;6.806;2023-03-01T12:02:01;65660.78;;;2.19;100.00
46614;BME280;32338;50.430;6.806;2023-03-01T12:04:58;65681.13;;;2.40;97.57
46614;BME280;32338;50.430;6.806;2023-03-01T12:07:38;65697.28;;;2.48;94.33
46614;BME280;32338;50.430;6.806;2023-03-01T12:10:22;65723.44;;;2.76;100.00
46614;BME280;32338;50.430;6.806;2023-03-01T12:13:13;65698.47;;;2.56;94.90
46614;BME280;32338;50.430;6.806;2023-03-01T12:15:57;65709.09;;;2.66;95.43
46614;BME280;32338;50.430;6.806;2023-03-01T12:21:33;65741.56;;;2.96;100.00
46614;BME280;32338;50.430;6.806;2023-03-01T12:24:25;65804.03;;;3.51;100.00
46614;BME280;32338;50.430;6.806;2023-03-01T12:27:10;65770.84;;;3.25;90.19
46614;BME280;32338;50.430;6.806;2023-03-01T12:29:45;65824.97;;;3.72;100.00
46614;BME280;32338;50.430;6.806;2023-03-01T12:32:28;65860.44;;;4.08;96.40
46614;BME280;32338;50.430;6.806;2023-03-01T12:35:11;65827.97;;;3.78;86.48
46614;BME280;32338;50.430;6.806;2023-03-01T12:37:54;65857.09;;;4.04;95.32
46614;BME280;32338;50.430;6.806;2023-03-01T12:40:50;65874.25;;;4.18;91.91
46614;BME280;32338;50.430;6.806;2023-03-01T12:43:28;65898.69;;;4.38;90.96
46614;BME280;32338;50.430;6.806;2023-03-01T12:46:10;65884.47;;;4.22;91.18
46614;BME280;32338;50.430;6.806;2023-03-01T12:48:42;65900.38;;;4.40;92.41
46614;BME280;32338;50.430;6.806;2023-03-01T12:51:15;65918.72;;;4.61;90.67
46614;BME280;32338;50.430;6.806;2023-03-01T12:53:46;65885.66;;;4.31;78.04
46614;BME280;32338;50.430;6.806;2023-03-01T12:56:17;65879.63;;;4.20;78.49
46614;BME280;32338;50.430;6.806;2023-03-01T12:58:52;65864.38;;;4.11;81.27
46614;BME280;32338;50.430;6.806;2023-03-01T13:01:25;65932.16;;;4.74;86.72
46614;BME280;32338;50.430;6.806;2023-03-01T13:04:06;65916.06;;;4.54;79.92
46614;BME280;32338;50.430;6.806;2023-03-01T13:06:43;65931.75;;;4.68;81.49
46614;BME280;32338;50.430;6.806;2023-03-01T13:09:18;65893.50;;;4.38;79.21
46614;BME280;32338;50.430;6.806;2023-03-01T13:11:48;65895.88;;;4.35;75.90